createdAt,value
2018-05-12T00:01:40.065Z,101396.81
2018-05-12T00:04:46.210Z,101397.98
2018-05-12T00:07:52.341Z,101393.36
2018-05-12T00:10:58.194Z,101395.94
2018-05-12T00:14:03.410Z,101383.23
2018-05-12T00:17:08.813Z,101384.24
2018-05-12T00:20:14.035Z,101386.37
2018-05-12T00:23:19.241Z,101391.33
2018-05-12T00:26:24.952Z,101386.53
2018-05-12T00:29:30.177Z,101383.66
2018-05-12T00:32:35.589Z,101379.08
2018-05-12T00:35:41.529Z,101382.63
2018-05-12T00:38:46.813Z,101381.63
2018-05-12T00:41:52.029Z,101377.97
2018-05-12T00:44:57.241Z,101379.13
2018-05-12T00:48:03.305Z,101373.30
2018-05-12T00:51:08.492Z,101372.17
2018-05-12T00:54:13.365Z,101374.88
2018-05-12T00:57:20.429Z,101370.33
2018-05-12T01:00:27.499Z,101371.78
2018-05-12T01:03:33.340Z,101366.20
2018-05-12T01:06:38.540Z,101362.83
2018-05-12T01:09:43.797Z,101357.91
2018-05-12T01:12:50.879Z,101358.13
2018-05-12T01:15:56.353Z,101355.28
2018-05-12T01:19:01.606Z,101353.73
2018-05-12T01:22:06.901Z,101350.95
2018-05-12T01:25:12.884Z,101347.28
2018-05-12T01:28:18.585Z,101343.75
2018-05-12T01:31:24.270Z,101347.06
2018-05-12T01:34:29.967Z,101342.08
2018-05-12T01:37:35.873Z,101343.14
2018-05-12T01:40:42.095Z,101344.67
2018-05-12T01:43:47.668Z,101346.84
2018-05-12T01:46:53.305Z,101350.11
2018-05-12T01:49:59.442Z,101340.25
2018-05-12T01:53:06.469Z,101352.09
2018-05-12T01:56:12.581Z,101350.88
2018-05-12T01:59:17.978Z,101351.52
2018-05-12T02:02:23.986Z,101358.95
2018-05-12T02:05:29.413Z,101364.64
2018-05-12T02:08:36.510Z,101359.23
2018-05-12T02:11:42.636Z,101360.82
2018-05-12T02:14:49.670Z,101354.98
2018-05-12T02:17:56.766Z,101360.30
2018-05-12T02:21:02.545Z,101355.25
2018-05-12T02:24:07.749Z,101351.75
2018-05-12T02:27:12.963Z,101351.84
2018-05-12T02:30:18.208Z,101355.63
2018-05-12T02:33:24.490Z,101362.64
2018-05-12T02:36:30.332Z,101358.35
2018-05-12T02:39:36.905Z,101354.16
2018-05-12T02:42:42.789Z,101356.93
2018-05-12T02:45:49.101Z,101351.85
2018-05-12T02:48:54.353Z,101352.38
2018-05-12T02:52:01.481Z,101349.93
2018-05-12T02:55:06.733Z,101353.71
2018-05-12T02:58:12.501Z,101349.09
2018-05-12T03:01:18.657Z,101350.88
2018-05-12T03:04:24.589Z,101352.58
2018-05-12T03:07:30.546Z,101344.43
2018-05-12T03:10:37.846Z,101350.46
2018-05-12T03:13:43.928Z,101350.88
2018-05-12T03:16:49.269Z,101349.97
2018-05-12T03:19:55.137Z,101345.23
2018-05-12T03:23:01.074Z,101346.89
2018-05-12T03:26:06.010Z,101345.10
2018-05-12T03:29:11.218Z,101342.03
2018-05-12T03:32:16.425Z,101349.69
2018-05-12T03:35:21.662Z,101341.91
2018-05-12T03:38:26.906Z,101347.86
2018-05-12T03:41:32.117Z,101348.70
2018-05-12T03:44:38.653Z,101342.67
2018-05-12T03:47:44.769Z,101344.34
2018-05-12T03:50:50.889Z,101346.00
2018-05-12T03:53:58.011Z,101351.13
2018-05-12T03:57:03.803Z,101348.55
2018-05-12T04:00:10.846Z,101349.79
2018-05-12T04:03:17.308Z,101358.36
2018-05-12T04:06:34.460Z,101347.96
2018-05-12T04:09:51.089Z,101345.39
2018-05-12T04:12:56.721Z,101351.26
2018-05-12T04:16:02.341Z,101346.48
2018-05-12T04:19:08.276Z,101350.27
2018-05-12T04:22:15.138Z,101351.05
2018-05-12T04:25:22.197Z,101353.55
2018-05-12T04:28:29.267Z,101359.84
2018-05-12T04:31:36.343Z,101349.82
2018-05-12T04:34:43.413Z,101348.79
2018-05-12T04:37:49.529Z,101355.61
2018-05-12T04:40:55.354Z,101357.61
2018-05-12T04:44:02.182Z,101356.16
2018-05-12T04:47:08.017Z,101360.75
2018-05-12T04:50:13.225Z,101360.66
2018-05-12T04:53:18.432Z,101359.66
2018-05-12T04:56:24.555Z,101361.20
2018-05-12T04:59:30.694Z,101364.95
2018-05-12T05:02:36.407Z,101363.58
2018-05-12T05:05:41.622Z,101372.45
2018-05-12T05:08:46.830Z,101365.92
2018-05-12T05:11:52.041Z,101368.38
2018-05-12T05:14:57.794Z,101366.55
2018-05-12T05:18:03.023Z,101372.50
2018-05-12T05:21:08.316Z,101371.92
2018-05-12T05:24:15.442Z,101370.50
2018-05-12T05:27:21.553Z,101374.71
2018-05-12T05:30:27.697Z,101374.97
2018-05-12T05:33:34.805Z,101379.54
2018-05-12T05:36:40.612Z,101378.95
2018-05-12T05:39:46.264Z,101378.42
2018-05-12T05:42:52.221Z,101377.42
2018-05-12T05:45:58.170Z,101383.73
2018-05-12T05:49:05.209Z,101387.48
2018-05-12T05:52:11.169Z,101385.62
2018-05-12T05:55:18.224Z,101379.95
2018-05-12T05:58:24.244Z,101379.41
2018-05-12T06:01:30.205Z,101384.91
2018-05-12T06:04:36.265Z,101387.82
2018-05-12T06:07:43.109Z,101395.86
2018-05-12T06:10:49.257Z,101395.31
2018-05-12T06:13:55.081Z,101392.19
2018-05-12T06:17:01.021Z,101389.89
2018-05-12T06:20:07.175Z,101394.47
2018-05-12T06:23:12.936Z,101397.30
2018-05-12T06:26:18.881Z,101393.34
2018-05-12T06:29:25.003Z,101393.67
2018-05-12T06:32:30.857Z,101398.67
2018-05-12T06:35:36.072Z,101396.37
2018-05-12T06:38:41.282Z,101403.54
2018-05-12T06:41:46.477Z,101402.94
2018-05-12T06:44:51.692Z,101405.77
2018-05-12T06:47:56.914Z,101412.48
2018-05-12T06:51:02.193Z,101407.13
2018-05-12T06:54:08.550Z,101411.20
2018-05-12T06:57:14.698Z,101404.56
2018-05-12T07:00:19.914Z,101410.38
2018-05-12T07:03:26.111Z,101411.38
2018-05-12T07:06:33.553Z,101418.12
2018-05-12T07:09:40.310Z,101421.78
2018-05-12T07:12:46.160Z,101421.09
2018-05-12T07:15:52.265Z,101420.00
2018-05-12T07:18:58.390Z,101418.81
2018-05-12T07:22:04.657Z,101412.99
2018-05-12T07:25:11.541Z,101412.27
2018-05-12T07:28:17.608Z,101413.70
2018-05-12T07:31:23.941Z,101407.01
2018-05-12T07:34:29.154Z,101407.53
2018-05-12T07:37:35.419Z,101403.32
2018-05-12T07:40:41.157Z,101400.87
2018-05-12T07:43:46.358Z,101399.63
2018-05-12T07:46:51.565Z,101399.66
2018-05-12T07:49:57.187Z,101401.38
2018-05-12T07:53:03.192Z,101408.58
2018-05-12T07:56:09.134Z,101407.16
2018-05-12T07:59:15.056Z,101402.66
2018-05-12T08:02:20.274Z,101395.55
2018-05-12T08:05:26.421Z,101401.77
2018-05-12T08:08:31.653Z,101401.03
2018-05-12T08:11:37.782Z,101406.31
2018-05-12T08:14:43.717Z,101407.72
2018-05-12T08:17:50.095Z,101409.42
2018-05-12T08:20:56.041Z,101402.64
2018-05-12T08:24:02.168Z,101403.63
2018-05-12T08:27:08.517Z,101402.91
2018-05-12T08:30:14.110Z,101390.08
2018-05-12T08:33:19.047Z,101391.99
2018-05-12T08:36:24.955Z,101388.24
2018-05-12T08:39:31.073Z,101387.86
2018-05-12T08:42:37.905Z,101383.27
2018-05-12T08:45:45.077Z,101384.22
2018-05-12T08:48:52.085Z,101379.56
2018-05-12T08:51:58.215Z,101378.30
2018-05-12T08:55:04.134Z,101384.91
2018-05-12T08:58:09.370Z,101383.41
2018-05-12T09:01:15.102Z,101389.00
2018-05-12T09:04:20.313Z,101377.51
2018-05-12T09:07:26.150Z,101381.14
2018-05-12T09:10:32.286Z,101379.20
2018-05-12T09:13:38.421Z,101379.86
2018-05-12T09:16:44.054Z,101383.59
2018-05-12T09:19:50.374Z,101381.67
2018-05-12T09:22:56.548Z,101374.08
2018-05-12T09:26:02.680Z,101375.31
2018-05-12T09:29:08.565Z,101370.98
2018-05-12T09:32:13.772Z,101372.48
2018-05-12T09:35:19.898Z,101365.25
2018-05-12T09:38:27.126Z,101370.27
2018-05-12T09:41:32.941Z,101363.67
2018-05-12T09:44:40.080Z,101359.59
2018-05-12T09:47:47.086Z,101367.44
2018-05-12T09:50:52.905Z,101357.11
2018-05-12T09:53:59.077Z,101364.45
2018-05-12T09:57:05.124Z,101365.45
2018-05-12T10:00:11.949Z,101364.83
2018-05-12T10:03:17.200Z,101360.68
2018-05-12T10:06:23.348Z,101358.06
2018-05-12T10:09:29.476Z,101354.00
2018-05-12T10:12:35.604Z,101359.67
2018-05-12T10:15:40.817Z,101354.89
2018-05-12T10:18:46.242Z,101361.05
2018-05-12T10:21:53.358Z,101366.51
2018-05-12T10:24:59.276Z,101358.76
2018-05-12T10:28:04.266Z,101354.23
2018-05-12T10:31:09.921Z,101356.50
2018-05-12T10:34:15.709Z,101360.52
2018-05-12T10:37:20.935Z,101359.70
2018-05-12T10:40:26.137Z,101351.42
2018-05-12T10:43:32.060Z,101348.72
2018-05-12T10:46:38.196Z,101345.64
2018-05-12T10:49:43.407Z,101334.31
2018-05-12T10:52:50.471Z,101334.31
2018-05-12T10:55:57.510Z,101334.00
2018-05-12T10:59:03.293Z,101337.60
2018-05-12T11:02:09.447Z,101336.91
2018-05-12T11:05:14.629Z,101329.27
2018-05-12T11:08:20.469Z,101329.91
2018-05-12T11:11:26.613Z,101328.06
2018-05-12T11:14:31.817Z,101320.55
2018-05-12T11:17:37.028Z,101318.64
2018-05-12T11:20:43.690Z,101314.60
2018-05-12T11:23:49.849Z,101312.78
2018-05-12T11:26:55.067Z,101316.28
2018-05-12T11:30:00.277Z,101316.03
2018-05-12T11:33:05.680Z,101304.92
2018-05-12T11:36:11.893Z,101310.52
2018-05-12T11:39:17.753Z,101308.83
2018-05-12T11:42:22.945Z,101304.34
2018-05-12T11:45:29.047Z,101304.91
2018-05-12T11:48:35.667Z,101305.55
2018-05-12T11:51:42.601Z,101300.54
2018-05-12T11:54:48.722Z,101295.38
2018-05-12T11:57:55.618Z,101286.80
2018-05-12T12:01:01.832Z,101283.52
2018-05-12T12:04:07.981Z,101294.78
2018-05-12T12:07:12.941Z,101285.51
2018-05-12T12:10:19.735Z,101286.40
2018-05-12T12:13:25.553Z,101280.34
2018-05-12T12:16:31.632Z,101279.59
2018-05-12T12:19:38.136Z,101290.06
2018-05-12T12:22:44.702Z,101281.33
2018-05-12T12:25:50.838Z,101283.70
2018-05-12T12:28:57.123Z,101282.20
2018-05-12T12:32:03.777Z,101275.61
2018-05-12T12:35:09.406Z,101272.31
2018-05-12T12:38:14.621Z,101268.33
2018-05-12T12:41:20.123Z,101262.59
2018-05-12T12:44:26.277Z,101260.39
2018-05-12T12:47:33.377Z,101254.86
2018-05-12T12:50:39.191Z,101251.61
2018-05-12T12:53:44.397Z,101249.42
2018-05-12T12:56:50.506Z,101253.14
2018-05-12T12:59:56.151Z,101243.41
2018-05-12T13:03:03.169Z,101244.13
2018-05-12T13:06:10.220Z,101241.25
2018-05-12T13:09:16.401Z,101236.93
2018-05-12T13:12:22.445Z,101239.17
2018-05-12T13:15:29.514Z,101232.78
2018-05-12T13:18:36.578Z,101230.37
2018-05-12T13:21:43.614Z,101230.11
2018-05-12T13:24:50.773Z,101228.42
2018-05-12T13:27:56.685Z,101230.01
2018-05-12T13:31:02.876Z,101214.95
2018-05-12T13:34:08.081Z,101230.02
2018-05-12T13:37:14.221Z,101218.01
2018-05-12T13:40:19.929Z,101217.45
2018-05-12T13:43:25.982Z,101218.35
2018-05-12T13:46:31.837Z,101207.21
2018-05-12T13:49:37.941Z,101207.31
2018-05-12T13:52:43.149Z,101197.41
2018-05-12T13:55:48.917Z,101197.13
2018-05-12T13:58:56.097Z,101190.89
2018-05-12T14:02:02.223Z,101194.97
2018-05-12T14:05:08.988Z,101183.81
2018-05-12T14:08:14.622Z,101195.45
2018-05-12T14:11:19.834Z,101193.84
2018-05-12T14:14:25.083Z,101193.36
2018-05-12T14:17:32.127Z,101191.62
2018-05-12T14:20:39.185Z,101191.79
2018-05-12T14:23:46.260Z,101190.82
2018-05-12T14:26:52.093Z,101187.80
2018-05-12T14:29:58.126Z,101180.27
2018-05-12T14:33:04.286Z,101177.06
2018-05-12T14:36:09.224Z,101179.92
2018-05-12T14:39:16.098Z,101178.84
2018-05-12T14:42:23.136Z,101168.92
2018-05-12T14:45:29.274Z,101170.44
2018-05-12T14:48:35.368Z,101171.19
2018-05-12T14:51:41.478Z,101167.53
2018-05-12T14:54:47.142Z,101165.48
2018-05-12T14:57:52.350Z,101162.31
2018-05-12T15:00:57.554Z,101159.63
2018-05-12T15:04:03.690Z,101154.11
2018-05-12T15:07:09.890Z,101163.95
2018-05-12T15:10:15.743Z,101165.41
2018-05-12T15:13:20.954Z,101163.00
2018-05-12T15:16:26.881Z,101165.73
2018-05-12T15:19:32.113Z,101158.23
2018-05-12T15:22:38.259Z,101166.76
2018-05-12T15:25:43.464Z,101158.01
2018-05-12T15:28:48.893Z,101162.09
2018-05-12T15:31:55.184Z,101153.61
2018-05-12T15:35:01.327Z,101166.20
2018-05-12T15:38:07.302Z,101161.10
2018-05-12T15:41:13.430Z,101158.34
2018-05-12T15:44:20.454Z,101156.98
2018-05-12T15:47:26.585Z,101149.05
2018-05-12T15:50:32.870Z,101150.92
2018-05-12T15:53:39.894Z,101152.64
2018-05-12T15:56:46.045Z,101143.58
2018-05-12T15:59:53.079Z,101146.73
2018-05-12T16:02:59.291Z,101145.97
2018-05-12T16:06:04.340Z,101142.13
2018-05-12T16:09:10.109Z,101132.55
2018-05-12T16:12:16.360Z,101137.05
2018-05-12T16:15:22.486Z,101135.80
2018-05-12T16:18:28.393Z,101129.34
2018-05-12T16:21:34.234Z,101131.91
2018-05-12T16:24:39.108Z,101130.00
2018-05-12T16:27:45.950Z,101127.16
2018-05-12T16:30:52.070Z,101133.89
2018-05-12T16:33:56.997Z,101133.01
2018-05-12T16:37:02.450Z,101136.70
2018-05-12T16:40:09.529Z,101124.84
2018-05-12T16:43:15.681Z,101128.56
2018-05-12T16:46:21.830Z,101129.42
2018-05-12T16:49:28.867Z,101123.48
2018-05-12T16:52:35.909Z,101123.20
2018-05-12T16:55:42.032Z,101118.19
2018-05-12T16:58:48.165Z,101121.76
2018-05-12T17:01:54.390Z,101132.66
2018-05-12T17:04:59.636Z,101125.36
2018-05-12T17:08:05.502Z,101128.55
2018-05-12T17:11:12.558Z,101127.41
2018-05-12T17:14:18.671Z,101125.33
2018-05-12T17:17:23.929Z,101120.20
2018-05-12T17:20:30.069Z,101119.97
2018-05-12T17:23:35.305Z,101123.62
2018-05-12T17:26:42.450Z,101125.09
2018-05-12T17:29:48.372Z,101122.59
2018-05-12T17:32:54.545Z,101123.16
2018-05-12T17:36:00.459Z,101122.92
2018-05-12T17:39:06.089Z,101124.05
2018-05-12T17:42:13.093Z,101117.86
2018-05-12T17:45:20.161Z,101118.55
2018-05-12T17:48:26.293Z,101116.14
2018-05-12T17:51:32.218Z,101109.88
2018-05-12T17:54:38.345Z,101108.05
2018-05-12T17:57:44.469Z,101103.62
2018-05-12T18:00:50.395Z,101106.02
2018-05-12T18:03:57.387Z,101102.23
2018-05-12T18:07:03.560Z,101097.14
2018-05-12T18:10:09.434Z,101103.61
2018-05-12T18:13:15.241Z,101104.39
2018-05-12T18:16:20.465Z,101099.84
2018-05-12T18:19:26.391Z,101104.23
2018-05-12T18:22:32.197Z,101106.77
2018-05-12T18:25:37.402Z,101110.78
2018-05-12T18:28:43.657Z,101103.50
2018-05-12T18:31:49.300Z,101107.84
2018-05-12T18:34:54.530Z,101108.53
2018-05-12T18:38:01.204Z,101102.95
2018-05-12T18:41:06.914Z,101106.66
2018-05-12T18:44:11.918Z,101106.75
2018-05-12T18:47:17.020Z,101107.66
2018-05-12T18:50:22.369Z,101109.83
2018-05-12T18:53:28.233Z,101108.82
2018-05-12T18:56:34.601Z,101105.48
2018-05-12T18:59:40.717Z,101102.63
2018-05-12T19:02:46.193Z,101103.07
2018-05-12T19:05:51.962Z,101101.37
2018-05-12T19:08:57.177Z,101103.98
2018-05-12T19:12:02.482Z,101109.23
2018-05-12T19:15:07.420Z,101109.95
2018-05-12T19:18:12.921Z,101110.59
2018-05-12T19:21:18.994Z,101113.22
2018-05-12T19:24:24.726Z,101109.91
2018-05-12T19:27:29.658Z,101116.75
2018-05-12T19:30:36.245Z,101117.55
2018-05-12T19:33:42.171Z,101121.37
2018-05-12T19:36:48.030Z,101123.33
2018-05-12T19:39:53.855Z,101125.06
2018-05-12T19:42:59.684Z,101129.42
2018-05-12T19:46:05.277Z,101120.47
2018-05-12T19:49:11.225Z,101122.06
2018-05-12T19:52:16.759Z,101122.14
2018-05-12T19:55:22.368Z,101124.98
2018-05-12T19:58:27.917Z,101125.52
2018-05-12T20:01:34.833Z,101122.33
2018-05-12T20:04:40.406Z,101119.98
2018-05-12T20:07:45.628Z,101120.85
2018-05-12T20:10:52.605Z,101120.83
2018-05-12T20:13:58.246Z,101124.05
2018-05-12T20:17:02.949Z,101113.61
2018-05-12T20:20:07.870Z,101116.33
2018-05-12T20:23:13.319Z,101107.23
2018-05-12T20:26:19.173Z,101110.53
2018-05-12T20:29:25.030Z,101106.92
2018-05-12T20:32:31.108Z,101103.56
2018-05-12T20:35:36.233Z,101103.95
2018-05-12T20:38:42.078Z,101102.23
2018-05-12T20:41:47.929Z,101103.97
2018-05-12T20:44:53.777Z,101103.86
2018-05-12T20:47:59.913Z,101104.53
2018-05-12T20:51:05.762Z,101099.47
2018-05-12T20:54:10.704Z,101101.50
2018-05-12T20:57:16.332Z,101098.80
2018-05-12T21:00:22.228Z,101100.05
2018-05-12T21:03:27.738Z,101099.02
2018-05-12T21:06:32.879Z,101100.56
2018-05-12T21:09:37.917Z,101096.91
2018-05-12T21:12:43.253Z,101096.55
2018-05-12T21:15:49.389Z,101094.16
2018-05-12T21:18:54.932Z,101101.00
2018-05-12T21:22:00.789Z,101109.69
2018-05-12T21:25:06.409Z,101111.50
2018-05-12T21:28:11.977Z,101110.09
2018-05-12T21:31:16.909Z,101104.72
2018-05-12T21:34:23.738Z,101117.34
2018-05-12T21:37:30.510Z,101112.83
2018-05-12T21:40:36.379Z,101106.82
2018-05-12T21:43:41.750Z,101099.64
2018-05-12T21:46:48.587Z,101109.03
2018-05-12T21:49:54.160Z,101110.48
2018-05-12T21:52:59.117Z,101105.86
2018-05-12T21:56:05.042Z,101102.30
2018-05-12T21:59:11.391Z,101100.03
2018-05-12T22:02:16.747Z,101104.69
2018-05-12T22:05:21.682Z,101103.18
2018-05-12T22:08:27.518Z,101099.92
2018-05-12T22:11:32.851Z,101098.52
2018-05-12T22:14:38.693Z,101089.77
2018-05-12T22:17:43.644Z,101091.48
2018-05-12T22:20:48.873Z,101092.14
2018-05-12T22:23:54.715Z,101085.68
2018-05-12T22:27:00.086Z,101089.00
2018-05-12T22:30:05.977Z,101080.67
2018-05-12T22:33:11.631Z,101078.41
2018-05-12T22:36:16.565Z,101080.84
2018-05-12T22:39:21.514Z,101079.81
2018-05-12T22:42:27.376Z,101079.86
2018-05-12T22:45:32.516Z,101080.21
2018-05-12T22:48:37.446Z,101072.25
2018-05-12T22:51:42.783Z,101072.91
2018-05-12T22:54:47.719Z,101064.80
2018-05-12T22:57:52.661Z,101062.58
2018-05-12T23:00:58.209Z,101065.17
2018-05-12T23:04:04.239Z,101063.45
2018-05-12T23:07:09.844Z,101064.85
2018-05-12T23:10:15.236Z,101067.39
2018-05-12T23:13:20.513Z,101061.34
2018-05-12T23:16:26.246Z,101054.19
2018-05-12T23:19:31.474Z,101055.53
2018-05-12T23:22:36.120Z,101056.61
2018-05-12T23:25:42.697Z,101062.41
2018-05-12T23:28:48.849Z,101059.51
2018-05-12T23:31:54.089Z,101061.58
2018-05-12T23:34:59.965Z,101063.39
2018-05-12T23:38:05.084Z,101072.38
2018-05-12T23:41:10.733Z,101073.52
2018-05-12T23:44:16.874Z,101070.61
2018-05-12T23:47:22.097Z,101067.38
2018-05-12T23:50:27.316Z,101063.66
2018-05-12T23:53:32.534Z,101060.34
2018-05-12T23:56:39.577Z,101058.47
2018-05-12T23:59:45.736Z,101047.86
